Time;durP1;ratioP1;P1;durP2;ratioP2;P2;SDS_P1;SDS_P2;PMS_P1;PMS_P2;Temp;Humidity;BMP_temperature;BMP_pressure;BME280_temperature;BME280_humidity;BME280_pressure;Samples;Min_cycle;Max_cycle;Signal;HPM_P1;HPM_P2
2022/11/01 00:02:23;;;;;;;51.00;36.80;;;;;;;9.96;84.20;100166.29;209767;1302;140716;-72
2022/11/01 00:07:27;;;;;;;51.80;36.60;;;;;;;9.99;84.27;100164.42;209530;1304;139554;-72
2022/11/01 00:12:30;;;;;;;53.40;36.00;;;;;;;9.99;84.42;100161.55;208836;1292;140317;-69
2022/11/01 00:17:34;;;;;;;48.80;33.70;;;;;;;9.98;84.34;100155.94;209984;1301;150410;-76
2022/11/01 00:22:37;;;;;;;50.00;35.80;;;;;;;9.97;84.10;100158.54;209685;1296;140543;-75
2022/11/01 00:27:41;;;;;;;44.60;34.30;;;;;;;9.92;84.16;100150.95;209804;1301;142438;-78
2022/11/01 00:32:44;;;;;;;48.50;38.40;;;;;;;9.97;84.50;100140.50;209835;1302;140682;-69
2022/11/01 00:37:47;;;;;;;49.90;34.10;;;;;;;9.99;84.56;100134.88;210140;1301;139651;-69
2022/11/01 00:42:51;;;;;;;50.30;31.80;;;;;;;9.95;84.05;100134.67;210007;1295;141390;-70
2022/11/01 00:47:54;;;;;;;42.10;30.40;;;;;;;9.89;84.21;100137.30;209934;1295;140853;-69
2022/11/01 00:52:58;;;;;;;41.10;30.40;;;;;;;9.85;83.93;100137.95;209963;1299;140690;-70
2022/11/01 00:58:02;;;;;;;53.60;35.20;;;;;;;9.76;84.16;100127.01;210107;1302;140658;-73
2022/11/01 01:03:06;;;;;;;40.90;30.80;;;;;;;9.82;84.62;100116.96;210035;1296;140588;-74
2022/11/01 01:08:09;;;;;;;41.70;29.70;;;;;;;9.86;84.67;100113.73;210235;1296;141822;-73
2022/11/01 01:13:13;;;;;;;42.60;30.70;;;;;;;9.90;84.73;100106.52;210045;1292;141789;-76
2022/11/01 01:18:17;;;;;;;40.70;31.00;;;;;;;9.96;84.69;100103.02;210037;1291;141193;-73
2022/11/01 01:23:20;;;;;;;40.00;31.80;;;;;;;10.01;84.71;100100.52;208838;1293;140526;-74
2022/11/01 01:28:23;;;;;;;51.40;36.10;;;;;;;10.01;84.62;100096.84;209983;1301;140187;-68
2022/11/01 01:33:27;;;;;;;42.40;31.60;;;;;;;9.97;84.56;100090.60;209968;1297;140623;-70
2022/11/01 01:38:31;;;;;;;44.90;33.30;;;;;;;10.00;84.65;100078.65;209846;1293;140186;-73
2022/11/01 01:43:42;;;;;;;40.20;30.00;;;;;;;10.01;84.63;100075.37;209956;1293;140837;-70
2022/11/01 01:48:52;;;;;;;43.90;32.80;;;;;;;10.03;84.66;100070.34;209996;1285;150491;-70
2022/11/01 01:53:57;;;;;;;50.60;34.90;;;;;;;10.04;84.60;100072.10;209729;1287;140677;-76
2022/11/01 01:59:07;;;;;;;43.40;29.80;;;;;;;10.00;84.43;100072.21;208772;1296;140683;-71
2022/11/01 02:04:21;;;;;;;37.60;27.80;;;;;;;10.00;84.50;100075.17;209380;1296;140688;-74
2022/11/01 02:09:25;;;;;;;41.80;31.00;;;;;;;10.00;84.36;100072.25;208867;1295;140423;-72
2022/11/01 02:14:34;;;;;;;56.20;32.50;;;;;;;9.92;84.08;100070.09;210113;1287;139727;-74
2022/11/01 02:20:01;;;;;;;38.10;30.70;;;;;;;9.81;84.04;100070.98;209334;1286;139945;-72
2022/11/01 02:25:20;;;;;;;38.70;30.80;;;;;;;9.79;84.29;100067.64;209903;1303;142160;-73
2022/11/01 02:30:35;;;;;;;42.80;29.10;;;;;;;9.82;84.17;100055.40;210091;1297;140354;-73
2022/11/01 02:35:51;;;;;;;45.00;29.60;;;;;;;9.79;84.15;100042.58;210050;1296;140949;-72
2022/11/01 02:41:30;;;;;;;39.10;26.40;;;;;;;9.74;83.84;100042.64;210027;1303;139244;-73
2022/11/01 02:52:07;;;;;;;36.40;28.50;;;;;;;9.58;83.70;100026.27;209835;1296;141268;-74
2022/11/01 02:57:38;;;;;;;38.60;29.00;;;;;;;9.55;83.71;100021.46;210035;1288;140912;-75
2022/11/01 03:02:43;;;;;;;39.80;28.90;;;;;;;9.56;84.02;100020.67;210205;1295;140425;-72
2022/11/01 03:07:54;;;;;;;38.60;27.40;;;;;;;9.54;83.78;100023.97;210017;1296;141110;-71
2022/11/01 03:13:11;;;;;;;33.70;26.60;;;;;;;9.50;83.54;100024.23;209898;1296;140232;-71
2022/11/01 03:18:30;;;;;;;33.30;27.50;;;;;;;9.47;83.41;100019.94;210040;1303;141264;-70
2022/11/01 03:23:42;;;;;;;35.60;24.60;;;;;;;9.32;82.92;100023.70;210018;1295;140236;-71
2022/11/01 03:28:54;;;;;;;36.60;25.20;;;;;;;9.22;83.19;100026.29;209484;1296;141144;-71
2022/11/01 03:34:05;;;;;;;32.90;25.50;;;;;;;9.20;83.36;100027.98;209643;1296;140948;-70
2022/11/01 03:39:17;;;;;;;37.50;25.60;;;;;;;9.17;83.10;100028.43;209971;1296;140319;-71
2022/11/01 03:44:23;;;;;;;40.20;27.90;;;;;;;9.18;83.88;100023.46;210050;1296;141627;-69
2022/11/01 03:49:27;;;;;;;40.00;25.90;;;;;;;9.24;83.86;100019.19;209250;1297;140827;-72
2022/11/01 03:54:32;;;;;;;32.50;23.70;;;;;;;9.22;83.40;100016.84;209584;1294;141638;-72
2022/11/01 03:59:37;;;;;;;30.70;24.60;;;;;;;9.18;83.32;100018.89;210001;1297;140504;-73
2022/11/01 04:04:41;;;;;;;34.10;24.30;;;;;;;9.09;83.21;100014.96;209905;1295;140027;-71
2022/11/01 04:09:44;;;;;;;32.60;25.30;;;;;;;9.08;83.54;100008.80;210046;1295;140213;-68
2022/11/01 04:25:36;;;;;;;36.40;25.90;;;;;;;9.09;83.53;99982.56;210173;1298;223920;-70
2022/11/01 04:30:42;;;;;;;32.80;22.60;;;;;;;8.94;83.30;99973.36;210296;1302;140687;-71
2022/11/01 04:35:47;;;;;;;33.00;23.20;;;;;;;8.81;83.39;99967.85;209927;1301;139943;-71
2022/11/01 04:40:51;;;;;;;38.50;25.30;;;;;;;8.73;83.68;99963.27;210180;1295;139893;-70
2022/11/01 04:45:57;;;;;;;29.40;21.90;;;;;;;8.75;84.10;99959.86;210017;1295;140361;-73
2022/11/01 04:51:03;;;;;;;28.90;22.50;;;;;;;8.78;83.75;99952.44;210091;1298;140226;-72
2022/11/01 04:56:12;;;;;;;37.10;24.60;;;;;;;8.73;83.76;99940.13;210191;1298;141039;-71
2022/11/01 05:01:17;;;;;;;37.70;25.30;;;;;;;8.69;84.02;99931.46;210323;1298;140031;-73
2022/11/01 05:06:22;;;;;;;32.40;23.10;;;;;;;8.67;84.05;99935.77;210164;1302;140040;-73
2022/11/01 05:11:27;;;;;;;32.60;24.90;;;;;;;8.70;84.19;99935.12;210008;1295;140294;-72
2022/11/01 05:16:32;;;;;;;33.60;25.50;;;;;;;8.78;84.52;99930.45;209978;1295;141761;-71
2022/11/01 05:21:36;;;;;;;32.00;22.70;;;;;;;8.88;84.68;99929.56;209705;1289;140310;-69
2022/11/01 05:26:41;;;;;;;36.30;24.20;;;;;;;8.93;84.50;99927.19;209702;1298;140175;-70
2022/11/01 05:31:44;;;;;;;45.00;24.70;;;;;;;8.88;84.21;99929.84;208729;1280;140650;-68
2022/11/01 05:36:48;;;;;;;35.90;24.10;;;;;;;8.90;84.13;99932.70;209982;1295;141170;-70
2022/11/01 05:41:53;;;;;;;28.80;23.50;;;;;;;8.85;83.93;99935.65;209377;1295;139671;-75
2022/11/01 05:47:05;;;;;;;29.80;22.40;;;;;;;8.83;84.30;99941.25;209671;1296;140705;-76
2022/11/01 05:52:08;;;;;;;27.10;19.30;;;;;;;8.90;84.73;99944.35;210062;1296;140957;-77
2022/11/01 05:57:11;;;;;;;31.90;22.60;;;;;;;9.00;84.56;99956.91;210080;1287;139814;-75
2022/11/01 06:02:15;;;;;;;33.70;22.80;;;;;;;9.11;84.80;99967.70;210183;1287;140460;-76
2022/11/01 06:07:19;;;;;;;33.70;23.30;;;;;;;9.17;84.58;99973.70;208612;1296;140694;-74
2022/11/01 06:12:24;;;;;;;33.60;22.40;;;;;;;9.16;84.56;99975.02;210070;1296;139970;-76
2022/11/01 06:17:28;;;;;;;38.00;21.90;;;;;;;9.19;84.59;99986.10;209962;1297;141266;-78
2022/11/01 06:22:35;;;;;;;40.70;21.90;;;;;;;9.27;84.80;100001.40;209702;1297;140259;-74
2022/11/01 06:27:38;;;;;;;37.70;23.30;;;;;;;9.37;84.75;100002.99;209552;1297;280062;-82
2022/11/01 06:32:42;;;;;;;34.80;23.20;;;;;;;9.45;85.06;99998.45;210006;1295;140592;-81
2022/11/01 06:37:46;;;;;;;31.80;22.90;;;;;;;9.52;84.84;99996.60;210177;1296;140843;-72
2022/11/01 06:42:52;;;;;;;30.20;20.70;;;;;;;9.50;84.70;100010.58;210073;1297;141119;-74
2022/11/01 06:47:57;;;;;;;31.00;22.00;;;;;;;9.56;85.02;100024.11;210066;1287;141886;-74
2022/11/01 06:53:03;;;;;;;25.50;18.90;;;;;;;9.64;85.04;100025.35;209673;1299;141053;-75
2022/11/01 06:58:08;;;;;;;25.70;19.70;;;;;;;9.72;84.98;100021.66;209895;1289;141207;-74
2022/11/01 07:03:13;;;;;;;22.40;17.30;;;;;;;9.74;85.08;100018.32;210026;1291;139697;-72
2022/11/01 07:08:18;;;;;;;22.30;14.80;;;;;;;9.80;84.97;100007.30;210044;1296;140363;-73
2022/11/01 07:13:23;;;;;;;24.30;17.60;;;;;;;9.93;85.03;100008.78;209976;1294;140251;-74
2022/11/01 07:18:28;;;;;;;18.70;15.10;;;;;;;10.02;84.61;100008.02;209965;1288;140586;-72
2022/11/01 07:23:34;;;;;;;19.60;15.80;;;;;;;10.13;84.75;99999.68;209937;1293;140276;-71
2022/11/01 07:28:38;;;;;;;20.10;15.30;;;;;;;10.21;84.25;99994.17;209896;1296;140144;-71
2022/11/01 07:33:42;;;;;;;21.80;16.90;;;;;;;10.37;84.20;99995.98;209968;1295;141640;-72
2022/11/01 07:38:46;;;;;;;19.50;16.70;;;;;;;10.49;84.08;99994.09;208998;1296;140862;-71
2022/11/01 07:43:50;;;;;;;21.00;16.90;;;;;;;10.52;84.07;99989.86;210339;1302;140354;-71
2022/11/01 07:48:54;;;;;;;22.60;19.20;;;;;;;10.60;84.16;99989.33;208923;1297;140762;-69
2022/11/01 07:53:58;;;;;;;25.10;17.40;;;;;;;10.70;83.97;99981.41;209832;1287;140714;-71
2022/11/01 07:59:04;;;;;;;29.20;22.40;;;;;;;10.69;83.37;99984.75;209886;1289;141316;-70
2022/11/01 08:04:08;;;;;;;30.70;21.00;;;;;;;10.69;83.95;99970.20;210069;1297;140330;-70
2022/11/01 08:09:13;;;;;;;30.20;23.20;;;;;;;10.83;84.20;99951.41;210011;1288;140055;-74
2022/11/01 08:14:18;;;;;;;29.20;20.50;;;;;;;10.97;84.27;99943.29;209684;1295;139945;-73
2022/11/01 08:19:23;;;;;;;33.60;22.30;;;;;;;11.10;84.23;99944.84;210063;1296;140384;-70
2022/11/01 08:24:27;;;;;;;28.50;23.00;;;;;;;11.23;84.35;99948.52;209947;1297;140486;-72
2022/11/01 08:29:32;;;;;;;40.00;24.50;;;;;;;11.36;84.27;99937.83;210064;1289;141672;-70
2022/11/01 08:34:36;;;;;;;43.80;26.80;;;;;;;11.47;84.32;99934.77;209856;1296;140479;-76
2022/11/01 08:39:40;;;;;;;37.60;27.30;;;;;;;11.62;84.51;99936.45;210006;1295;140634;-74
2022/11/01 08:44:44;;;;;;;37.40;26.80;;;;;;;11.73;84.39;99941.31;210173;1295;141551;-75
2022/11/01 08:49:49;;;;;;;36.80;26.10;;;;;;;11.74;84.15;99955.67;210246;1296;140636;-71
2022/11/01 08:54:53;;;;;;;40.30;28.40;;;;;;;11.64;83.87;99949.74;210173;1296;141456;-71
2022/11/01 08:59:57;;;;;;;45.90;31.00;;;;;;;11.70;84.29;99951.19;210065;1297;142279;-71
2022/11/01 09:05:04;;;;;;;40.70;27.90;;;;;;;11.82;84.28;99953.55;209925;1289;140175;-80
2022/11/01 09:10:09;;;;;;;41.40;26.50;;;;;;;11.73;83.54;99951.10;209919;1297;140571;-73
2022/11/01 09:15:13;;;;;;;42.00;29.60;;;;;;;11.65;83.28;99949.38;209784;1295;141053;-72
2022/11/01 09:20:17;;;;;;;30.00;19.90;;;;;;;11.64;83.53;99942.02;210128;1303;140980;-72
2022/11/01 09:25:22;;;;;;;38.40;23.70;;;;;;;11.49;83.08;99942.34;209852;1297;140760;-69
2022/11/01 09:30:29;;;;;;;29.00;23.20;;;;;;;11.26;83.35;99933.04;210156;1297;142184;-71
2022/11/01 09:35:34;;;;;;;;;;;;;;;11.23;84.24;99947.38;209986;1294;140356;-72
2022/11/01 09:40:44;;;;;;;40.20;26.60;;;;;;;11.35;84.39;99943.42;210429;1296;126409;-71
2022/11/01 09:45:54;;;;;;;48.60;32.90;;;;;;;11.47;84.33;99944.34;210143;1294;141119;-73
2022/11/01 09:51:09;;;;;;;57.40;34.50;;;;;;;11.52;84.23;99933.20;209378;1283;141226;-72
2022/11/01 09:56:17;;;;;;;47.90;31.10;;;;;;;11.59;84.54;99944.10;209733;1287;140397;-75
2022/11/01 10:01:37;;;;;;;45.20;29.60;;;;;;;11.74;84.99;99941.79;209684;1297;222618;-68
2022/11/01 10:07:04;;;;;;;45.20;31.00;;;;;;;11.96;84.62;99936.17;209909;1302;140620;-71
2022/11/01 10:12:44;;;;;;;43.80;28.30;;;;;;;11.98;84.48;99936.00;209474;1296;142021;-74
2022/11/01 10:17:54;;;;;;;39.40;24.80;;;;;;;12.13;84.45;99928.86;209019;1288;141920;-77
2022/11/01 10:23:00;;;;;;;32.90;24.30;;;;;;;12.22;83.96;99914.33;210101;1296;141379;-73
2022/11/01 10:28:31;;;;;;;39.40;28.30;;;;;;;12.30;83.84;99909.59;210155;1297;140386;-71
2022/11/01 10:33:43;;;;;;;45.20;29.60;;;;;;;12.36;83.43;99904.45;209814;1297;142077;-72
2022/11/01 10:39:00;;;;;;;47.00;29.50;;;;;;;12.46;83.80;99894.89;210145;1295;141267;-74
2022/11/01 10:44:32;;;;;;;40.50;28.50;;;;;;;12.59;83.48;99883.00;210161;1295;141242;-80
2022/11/01 10:50:01;;;;;;;44.10;28.80;;;;;;;12.38;82.93;99885.83;210138;1296;246507;-71
2022/11/01 10:55:16;;;;;;;41.40;26.80;;;;;;;12.14;82.87;99887.98;210031;1293;141228;-76
2022/11/01 11:00:20;;;;;;;47.00;27.90;;;;;;;11.75;82.39;99887.91;210104;1297;141215;-77
2022/11/01 11:05:28;;;;;;;44.50;29.60;;;;;;;11.44;82.66;99897.54;210041;1287;141959;-75
2022/11/01 11:10:31;;;;;;;;;;;;;;;11.44;83.55;99907.20;210109;1296;141703;-81
2022/11/01 11:15:49;;;;;;;46.00;31.00;;;;;;;11.49;83.71;99901.06;210552;1297;126280;-71
2022/11/01 11:20:58;;;;;;;43.70;29.50;;;;;;;11.56;83.65;99906.91;209943;1296;139869;-71
2022/11/01 11:26:07;;;;;;;43.10;31.00;;;;;;;11.44;83.40;99907.58;209493;1303;140694;-69
2022/11/01 11:31:20;;;;;;;44.00;31.20;;;;;;;11.34;83.53;99906.02;209876;1293;140777;-73
2022/11/01 11:36:37;;;;;;;44.30;29.40;;;;;;;11.26;83.52;99911.22;209877;1297;141354;-72
2022/11/01 11:41:46;;;;;;;51.10;30.80;;;;;;;11.22;83.79;99910.02;209613;1295;141227;-69
2022/11/01 11:46:56;;;;;;;35.70;21.20;;;;;;;11.17;84.26;99898.79;209914;1280;141069;-70
2022/11/01 11:52:01;;;;;;;47.70;29.40;;;;;;;11.16;84.03;99893.71;209922;1290;140606;-74
2022/11/01 11:57:23;;;;;;;44.80;31.50;;;;;;;11.14;84.17;99898.58;207336;1288;141130;-77
2022/11/01 12:02:37;;;;;;;45.70;34.00;;;;;;;11.21;84.55;99894.08;209197;1296;141117;-71
2022/11/01 12:07:48;;;;;;;50.50;32.00;;;;;;;11.30;84.44;99898.91;210070;1296;141745;-77
2022/11/01 12:12:53;;;;;;;56.30;32.90;;;;;;;11.27;84.48;99903.93;209848;1297;140611;-72
2022/11/01 12:18:10;;;;;;;48.40;28.60;;;;;;;11.32;84.54;99905.34;209899;1288;140513;-77
2022/11/01 12:23:38;;;;;;;40.50;25.20;;;;;;;11.31;84.18;99911.36;208193;1290;142849;-73
2022/11/01 12:28:51;;;;;;;45.10;25.90;;;;;;;11.22;84.11;99917.25;209965;1295;140547;-73
2022/11/01 12:34:20;;;;;;;38.60;25.00;;;;;;;11.24;84.26;99922.33;209782;1295;142047;-73
2022/11/01 12:39:55;;;;;;;36.30;21.80;;;;;;;11.26;84.45;99928.62;209972;1297;140639;-71
2022/11/01 12:45:15;;;;;;;35.80;22.40;;;;;;;11.28;84.53;99945.21;209955;1297;139587;-73
2022/11/01 12:50:49;;;;;;;38.20;21.40;;;;;;;11.36;84.65;99950.80;209884;1304;141854;-73
2022/11/01 12:55:57;;;;;;;33.90;19.70;;;;;;;11.43;84.52;99954.73;210056;1302;245616;-73
2022/11/01 13:01:07;;;;;;;;;;;;;;;11.47;84.41;99941.06;209897;1297;140945;-71
2022/11/01 13:06:55;;;;;;;26.70;19.70;;;;;;;11.44;84.48;99943.04;210750;1303;127499;-75
2022/11/01 13:12:07;;;;;;;33.00;23.40;;;;;;;11.47;84.60;99942.13;210049;1287;140494;-77
2022/11/01 13:17:18;;;;;;;30.20;20.00;;;;;;;11.54;84.54;99941.95;210040;1299;140206;-77
2022/11/01 13:22:55;;;;;;;36.40;22.10;;;;;;;11.63;84.80;99944.75;210007;1300;140697;-74
2022/11/01 13:28:27;;;;;;;35.20;21.60;;;;;;;11.70;84.58;99940.55;210040;1301;140247;-72
2022/11/01 13:33:50;;;;;;;27.70;19.90;;;;;;;11.75;84.81;99938.23;210043;1302;139860;-74
2022/11/01 13:39:12;;;;;;;26.90;19.70;;;;;;;11.80;84.60;99930.11;209601;1297;140495;-75
2022/11/01 13:44:30;;;;;;;31.80;19.30;;;;;;;11.84;84.51;99928.38;210175;1303;140783;-76
2022/11/01 13:49:53;;;;;;;31.80;21.40;;;;;;;11.91;84.53;99934.16;209917;1293;140116;-75
2022/11/01 13:55:18;;;;;;;35.60;22.50;;;;;;;11.92;84.42;99932.75;209670;1301;141127;-76
2022/11/01 14:00:35;;;;;;;33.90;20.40;;;;;;;11.91;84.59;99942.09;209877;1303;141017;-75
2022/11/01 14:05:39;;;;;;;41.60;21.90;;;;;;;11.95;84.31;99941.50;209599;1295;141901;-75
2022/11/01 14:10:45;;;;;;;31.50;20.10;;;;;;;12.00;84.69;99925.46;209779;1297;141078;-77
2022/11/01 14:15:54;;;;;;;30.30;18.60;;;;;;;12.09;84.54;99918.31;207340;1303;140495;-75
2022/11/01 14:21:25;;;;;;;33.50;21.50;;;;;;;12.07;84.35;99913.77;210061;1293;139866;-75
2022/11/01 14:26:48;;;;;;;33.00;22.40;;;;;;;12.08;84.48;99924.93;208095;1294;140578;-78
2022/11/01 14:31:53;;;;;;;25.60;17.50;;;;;;;12.05;84.27;99925.61;209119;1297;141487;-77
2022/11/01 14:37:10;;;;;;;33.70;20.00;;;;;;;12.07;84.44;99918.27;209845;1297;140357;-73
2022/11/01 14:42:37;;;;;;;36.90;20.00;;;;;;;12.12;84.62;99925.58;209836;1294;247572;-76
2022/11/01 14:48:12;;;;;;;27.30;17.50;;;;;;;12.14;84.45;99923.60;209749;1302;140439;-71
2022/11/01 14:54:11;;;;;;;37.90;21.40;;;;;;;12.07;84.19;99926.56;209941;1295;141136;-73
2022/11/01 14:59:38;;;;;;;47.20;28.60;;;;;;;12.16;84.49;99925.45;209902;1303;224918;-74
2022/11/01 15:04:44;;;;;;;39.10;25.30;;;;;;;12.21;84.40;99927.20;209889;1287;140311;-75
2022/11/01 15:10:24;;;;;;;36.60;26.50;;;;;;;12.18;84.22;99933.02;209854;1301;140014;-83
2022/11/01 15:15:35;;;;;;;34.00;24.00;;;;;;;12.11;83.99;99933.54;209281;1305;140991;-80
2022/11/01 15:20:53;;;;;;;36.20;21.90;;;;;;;12.05;83.65;99941.59;209973;1295;141024;-80
2022/11/01 15:26:03;;;;;;;32.80;24.00;;;;;;;11.94;83.57;99943.08;210174;1305;246822;-74
2022/11/01 15:31:08;;;;;;;41.60;23.90;;;;;;;11.76;83.22;99943.64;210120;1295;140363;-76
2022/11/01 15:36:22;;;;;;;31.80;21.00;;;;;;;11.52;82.79;99948.37;210067;1305;140494;-76
2022/11/01 15:41:33;;;;;;;33.50;20.90;;;;;;;11.44;83.07;99951.84;209763;1299;140457;-70
2022/11/01 15:47:08;;;;;;;32.00;20.00;;;;;;;11.41;83.37;99956.56;209830;1293;245006;-77
2022/11/01 15:52:34;;;;;;;35.50;20.80;;;;;;;11.33;83.14;99958.70;209783;1290;144735;-76
2022/11/01 15:58:07;;;;;;;28.80;21.70;;;;;;;11.26;83.17;99967.67;209884;1301;140668;-78
2022/11/01 16:03:44;;;;;;;32.20;19.20;;;;;;;11.20;83.14;99970.69;210174;1293;140562;-74
2022/11/01 16:09:01;;;;;;;35.10;20.90;;;;;;;11.11;82.83;99974.97;210064;1303;141361;-72
2022/11/01 16:14:19;;;;;;;33.40;21.70;;;;;;;10.98;82.85;99972.70;209978;1303;140014;-77
2022/11/01 16:19:27;;;;;;;32.70;23.00;;;;;;;10.89;82.71;99979.20;209943;1299;140419;-75
2022/11/01 16:24:31;;;;;;;37.10;21.80;;;;;;;10.79;82.70;99980.66;210041;1296;140744;-71
2022/11/01 16:29:51;;;;;;;30.50;18.70;;;;;;;10.67;82.66;99989.80;210106;1288;142238;-77
2022/11/01 16:34:59;;;;;;;35.30;18.80;;;;;;;10.56;82.79;99994.23;209872;1298;140401;-75
2022/11/01 16:40:24;;;;;;;36.90;23.00;;;;;;;10.56;83.26;99998.61;209912;1295;140653;-75
2022/11/01 16:45:28;;;;;;;37.40;23.00;;;;;;;10.51;83.24;100003.57;210100;1286;140321;-74
2022/11/01 16:50:33;;;;;;;38.70;21.20;;;;;;;10.50;83.28;100001.54;210122;1295;141312;-72
2022/11/01 16:55:38;;;;;;;39.10;21.50;;;;;;;10.45;83.37;100005.09;210084;1301;142306;-72
2022/11/01 17:00:52;;;;;;;32.00;22.30;;;;;;;10.44;83.27;100005.95;209979;1289;141347;-79
2022/11/01 17:05:57;;;;;;;32.00;18.60;;;;;;;10.40;83.55;100008.85;209904;1299;140959;-77
2022/11/01 17:11:01;;;;;;;32.20;21.00;;;;;;;10.40;83.50;100013.11;209994;1294;141301;-71
2022/11/01 17:16:05;;;;;;;25.70;19.30;;;;;;;10.31;83.01;100013.52;209901;1297;140668;-74
2022/11/01 17:21:10;;;;;;;32.90;17.60;;;;;;;10.17;83.05;100015.44;210095;1287;141785;-71
2022/11/01 17:26:17;;;;;;;25.90;18.70;;;;;;;10.20;83.70;100018.42;209999;1303;142008;-79
2022/11/01 17:31:20;;;;;;;31.40;21.60;;;;;;;10.21;83.61;100021.86;209940;1293;141953;-81
2022/11/01 17:36:25;;;;;;;42.40;24.10;;;;;;;10.11;83.52;100023.55;209874;1296;141113;-74
2022/11/01 17:41:29;;;;;;;33.70;22.90;;;;;;;9.98;83.50;100016.15;209543;1302;140518;-74
2022/11/01 17:46:33;;;;;;;35.60;22.10;;;;;;;9.88;83.50;100014.37;209898;1303;140761;-75
2022/11/01 17:51:36;;;;;;;32.90;22.30;;;;;;;9.84;83.96;100014.21;208601;1299;141222;-72
2022/11/01 17:56:40;;;;;;;37.80;23.00;;;;;;;9.91;84.40;100015.52;209883;1303;142172;-78
2022/11/01 18:01:44;;;;;;;34.90;23.50;;;;;;;9.95;84.25;100012.45;209142;1303;142630;-74
2022/11/01 18:06:51;;;;;;;36.20;23.10;;;;;;;9.89;84.11;100009.86;208455;1293;141559;-76
2022/11/01 18:12:11;;;;;;;28.60;21.40;;;;;;;9.85;84.06;100014.24;208582;1297;141612;-74
2022/11/01 18:17:44;;;;;;;30.10;20.90;;;;;;;9.86;84.27;100007.88;210084;1295;141561;-78
2022/11/01 18:22:56;;;;;;;36.10;24.90;;;;;;;9.86;83.98;100007.39;209335;1295;140898;-76
2022/11/01 18:28:14;;;;;;;46.50;24.70;;;;;;;9.83;84.25;100011.45;210032;1296;238663;-72
2022/11/01 18:33:25;;;;;;;36.90;25.20;;;;;;;9.88;84.51;100011.39;210054;1301;141856;-73
2022/11/01 18:38:45;;;;;;;33.30;24.20;;;;;;;9.83;84.02;100013.42;210077;1302;141426;-75
2022/11/01 18:43:52;;;;;;;34.30;25.60;;;;;;;9.72;83.84;100013.77;209906;1295;141741;-79
2022/11/01 18:49:00;;;;;;;42.90;27.90;;;;;;;9.68;84.37;100010.31;209822;1302;141064;-72
2022/11/01 18:54:08;;;;;;;44.50;31.90;;;;;;;9.74;84.60;100014.55;209387;1295;140371;-71
2022/11/01 18:59:18;;;;;;;39.40;28.20;;;;;;;9.69;84.43;100008.38;209979;1303;140666;-72
2022/11/01 19:04:24;;;;;;;40.80;30.20;;;;;;;9.70;84.84;100005.95;209944;1296;142318;-71
2022/11/01 19:09:28;;;;;;;46.70;32.20;;;;;;;9.81;85.24;100002.98;209921;1287;141957;-72
2022/11/01 19:14:31;;;;;;;39.30;26.70;;;;;;;9.87;85.06;100008.98;210012;1280;141027;-75
2022/11/01 19:19:39;;;;;;;40.20;27.90;;;;;;;9.95;85.11;100009.83;209997;1296;141988;-72
2022/11/01 19:24:43;;;;;;;38.10;29.40;;;;;;;9.97;84.90;100019.92;210131;1295;139594;-73
2022/11/01 19:29:50;;;;;;;43.80;28.50;;;;;;;9.87;84.43;100021.43;210073;1295;139593;-73
2022/11/01 19:35:01;;;;;;;41.20;29.60;;;;;;;9.84;84.69;100022.86;209873;1296;236275;-71
2022/11/01 19:40:18;;;;;;;36.40;26.40;;;;;;;9.89;84.94;100025.64;209848;1295;140814;-71
2022/11/01 19:45:32;;;;;;;38.10;27.00;;;;;;;9.96;85.02;100034.11;210071;1303;141345;-71
2022/11/01 19:50:45;;;;;;;43.20;30.00;;;;;;;9.96;84.99;100034.48;210044;1295;142049;-71
2022/11/01 19:56:06;;;;;;;35.70;27.90;;;;;;;9.97;85.01;100033.61;209399;1292;141263;-74
2022/11/01 20:01:40;;;;;;;45.60;25.20;;;;;;;9.92;84.58;100040.75;210088;1297;141593;-76
2022/11/01 20:06:54;;;;;;;36.10;25.90;;;;;;;9.88;84.56;100045.31;209948;1302;141108;-76
2022/11/01 20:11:57;;;;;;;37.60;24.70;;;;;;;9.84;84.72;100038.22;208938;1297;140375;-73
2022/11/01 20:17:02;;;;;;;31.00;24.20;;;;;;;9.78;84.51;100043.49;209996;1292;140154;-70
2022/11/01 20:22:05;;;;;;;31.10;25.30;;;;;;;9.75;84.57;100044.80;207680;1293;140477;-78
2022/11/01 20:27:09;;;;;;;39.50;25.10;;;;;;;9.78;84.96;100043.66;209582;1296;140583;-69
2022/11/01 20:32:14;;;;;;;35.00;24.60;;;;;;;9.84;85.13;100046.25;209945;1295;141437;-73
2022/11/01 20:37:18;;;;;;;35.90;23.30;;;;;;;9.88;85.45;100046.29;210021;1287;139621;-71
2022/11/01 20:42:37;;;;;;;36.30;26.60;;;;;;;9.95;85.55;100054.95;210116;1287;140973;-71
2022/11/01 20:47:41;;;;;;;36.10;25.40;;;;;;;10.04;85.72;100054.15;209285;1295;141088;-72
2022/11/01 20:52:49;;;;;;;37.60;26.00;;;;;;;10.17;85.88;100059.14;209984;1301;142352;-71
2022/11/01 20:57:54;;;;;;;36.30;24.30;;;;;;;10.30;86.36;100064.61;209819;1296;144499;-71
2022/11/01 21:03:03;;;;;;;37.30;25.50;;;;;;;10.47;86.71;100067.29;210116;1296;140957;-69
2022/11/01 21:08:17;;;;;;;38.50;28.90;;;;;;;10.60;86.61;100067.70;208921;1302;140969;-71
2022/11/01 21:13:25;;;;;;;36.20;27.00;;;;;;;10.64;86.61;100064.66;210101;1297;140044;-74
2022/11/01 21:18:32;;;;;;;42.90;26.30;;;;;;;10.67;86.23;100068.52;209656;1296;141021;-76
2022/11/01 21:23:39;;;;;;;44.00;26.40;;;;;;;10.68;86.50;100071.61;210088;1289;141797;-75
2022/11/01 21:28:52;;;;;;;37.50;25.00;;;;;;;10.74;86.49;100067.35;209896;1297;143347;-73
2022/11/01 21:34:04;;;;;;;48.80;28.40;;;;;;;10.78;86.59;100068.05;210002;1296;141451;-74
2022/11/01 21:39:27;;;;;;;39.50;25.90;;;;;;;10.79;86.53;100065.20;210126;1296;140744;-68
2022/11/01 21:44:44;;;;;;;42.10;27.20;;;;;;;10.84;86.79;100067.72;210000;1299;211093;-71
2022/11/01 21:49:49;;;;;;;43.20;29.00;;;;;;;10.91;86.95;100072.17;209947;1297;142350;-73
2022/11/01 21:54:53;;;;;;;35.40;24.90;;;;;;;10.94;87.03;100075.95;208842;1288;140754;-71
2022/11/01 21:59:56;;;;;;;40.60;28.40;;;;;;;10.97;86.85;100082.14;209833;1295;140629;-74
2022/11/01 22:05:03;;;;;;;39.00;28.50;;;;;;;10.98;86.87;100081.48;209912;1296;222574;-70
2022/11/01 22:10:07;;;;;;;34.90;25.40;;;;;;;11.00;86.94;100081.05;210029;1296;139748;-72
2022/11/01 22:15:11;;;;;;;48.70;29.00;;;;;;;11.08;87.23;100084.00;209501;1287;140714;-72
2022/11/01 22:20:15;;;;;;;38.80;26.10;;;;;;;11.15;87.38;100084.92;209958;1304;140102;-75
2022/11/01 22:25:20;;;;;;;43.10;26.30;;;;;;;11.22;87.30;100086.17;209986;1295;142688;-73
2022/11/01 22:30:28;;;;;;;41.80;29.10;;;;;;;11.27;87.39;100082.98;210035;1296;150868;-72
2022/11/01 22:35:32;;;;;;;37.00;25.60;;;;;;;11.29;87.38;100080.20;209845;1295;140991;-72
2022/11/01 22:40:37;;;;;;;39.60;25.30;;;;;;;11.33;87.28;100076.48;209874;1296;141366;-71
2022/11/01 22:45:42;;;;;;;37.10;24.20;;;;;;;11.37;87.28;100084.11;209978;1296;141973;-71
2022/11/01 22:50:47;;;;;;;39.60;27.90;;;;;;;11.40;87.07;100081.52;210196;1296;141342;-73
2022/11/01 22:55:54;;;;;;;39.60;27.90;;;;;;;11.41;87.05;100088.02;209832;1299;139993;-73
2022/11/01 23:01:04;;;;;;;34.30;25.90;;;;;;;11.45;87.21;100090.18;208604;1296;142288;-75
2022/11/01 23:06:31;;;;;;;57.80;28.80;;;;;;;11.47;87.18;100094.04;209817;1287;140843;-73
2022/11/01 23:17:00;;;;;;;35.50;24.90;;;;;;;11.60;87.25;100094.64;209898;1292;140448;-73
2022/11/01 23:22:13;;;;;;;37.10;24.40;;;;;;;11.68;87.28;100088.40;209979;1296;141036;-71
2022/11/01 23:27:19;;;;;;;39.80;25.60;;;;;;;11.66;87.21;100095.73;210085;1297;141730;-72
2022/11/01 23:32:23;;;;;;;45.60;25.40;;;;;;;11.65;86.85;100099.70;209898;1296;141036;-71
2022/11/01 23:37:28;;;;;;;35.40;24.10;;;;;;;11.60;86.52;100097.35;209932;1297;140756;-73